| time (UTC) | temp F | wind direction | speed MPH | gust MPH | rain 1hr in | rain 24hr in | rain mn in | humidity % | barometer mb |
| 20260506201249 | 61 | 156 | 4.0 | 50.0 | 4.96 | 0.97 | 0.00 | 53 | 997.4 |
| 20260506200849 | 61 | 166 | 6.0 | 50.0 | 4.96 | 0.97 | 0.00 | 53 | 997.4 |
| 20260506200449 | 63 | 138 | 4.0 | 50.0 | 4.96 | 0.97 | 0.00 | 53 | 997.4 |
| 20260506200049 | 61 | 139 | 8.0 | 50.0 | 4.96 | 0.97 | 0.00 | 52 | 997.4 |
| 20260506195649 | 61 | 123 | 5.0 | 50.0 | 4.96 | 0.98 | 0.00 | 52 | 997.3 |
| 20260506194849 | 63 | 138 | 6.0 | 50.0 | 4.96 | 0.98 | 0.00 | 52 | 997.4 |
| 20260506194449 | 63 | 155 | 3.0 | 50.0 | 4.96 | 0.98 | 0.00 | 51 | 997.4 |
| 20260506194049 | 63 | 138 | 4.0 | 50.0 | 4.96 | 0.97 | 0.00 | 51 | 997.4 |
| 20260506193649 | 63 | 145 | 3.0 | 50.0 | 4.96 | 0.97 | 0.00 | 51 | 997.4 |
| 20260506193249 | 63 | 134 | 3.0 | 50.0 | 4.96 | 0.97 | 0.00 | 51 | 997.4 |
| 20260506192849 | 63 | 156 | 4.0 | 50.0 | 4.96 | 0.98 | 0.00 | 51 | 997.4 |
| 20260506192449 | 61 | 138 | 4.0 | 50.0 | 4.96 | 0.98 | 0.00 | 51 | 997.3 |
| 20260506192049 | 61 | 144 | 4.0 | 50.0 | 4.96 | 0.99 | 0.00 | 50 | 997.3 |
| 20260506191649 | 63 | 151 | 4.0 | 50.0 | 4.96 | 0.99 | 0.00 | 50 | 997.3 |
| 20260506191249 | 63 | 134 | 3.0 | 50.0 | 4.96 | 1.00 | 0.00 | 50 | 997.3 |
| 20260506190849 | 63 | 149 | 4.0 | 50.0 | 4.96 | 1.01 | 0.00 | 50 | 997.3 |
| 20260506190449 | 63 | 190 | 4.0 | 50.0 | 4.96 | 1.02 | 0.00 | 50 | 997.3 |
| 20260506190049 | 63 | 189 | 6.0 | 50.0 | 4.96 | 1.02 | 0.00 | 50 | 997.3 |
| 20260506185649 | 63 | 110 | 6.0 | 50.0 | 4.96 | 1.02 | 0.00 | 49 | 997.3 |
| 20260506185249 | 63 | 111 | 5.0 | 50.0 | 4.96 | 1.02 | 0.00 | 49 | 997.2 |
| 20260506184849 | 63 | 138 | 5.0 | 50.0 | 4.96 | 1.03 | 0.00 | 49 | 997.2 |
| 20260506184449 | 64 | 144 | 6.0 | 50.0 | 4.96 | 1.04 | 0.00 | 48 | 997.1 |
| 20260506184049 | 64 | 145 | 5.0 | 50.0 | 4.96 | 1.05 | 0.00 | 48 | 997.1 |
| 20260506183649 | 64 | 151 | 4.0 | 50.0 | 4.96 | 1.04 | 0.00 | 48 | 997.0 |
| 20260506183249 | 64 | 149 | 5.0 | 50.0 | 4.96 | 1.05 | 0.00 | 48 | 997.0 |
| 20260506182849 | 64 | 138 | 4.0 | 50.0 | 4.96 | 1.05 | 0.00 | 47 | 997.0 |
| 20260506182449 | 64 | 145 | 3.0 | 50.0 | 4.96 | 1.07 | 0.00 | 47 | 997.1 |
| 20260506182049 | 66 | 132 | 4.0 | 50.0 | 4.96 | 1.09 | 0.00 | 47 | 997.0 |
| 20260506181649 | 66 | 156 | 4.0 | 50.0 | 4.96 | 1.09 | 0.00 | 47 | 996.9 |
| 20260506181249 | 66 | 115 | 3.0 | 50.0 | 4.96 | 1.09 | 0.00 | 46 | 996.9 |
| 20260506180849 | 66 | 144 | 4.0 | 50.0 | 4.96 | 1.09 | 0.00 | 46 | 996.9 |
| 20260506180449 | 66 | 177 | 3.0 | 50.0 | 4.96 | 1.10 | 0.00 | 46 | 996.9 |
| 20260506180049 | 66 | 115 | 2.0 | 50.0 | 5.00 | 1.10 | 0.00 | 45 | 996.8 |
| 20260506175649 | 66 | 162 | 2.0 | 50.0 | 5.00 | 1.10 | 0.00 | 45 | 996.8 |
| 20260506175249 | 66 | 168 | 3.0 | 50.0 | 5.04 | 1.12 | 0.00 | 45 | 996.8 |
| 20260506174849 | 66 | 123 | 4.0 | 50.0 | 5.04 | 1.14 | 0.00 | 45 | 996.7 |
| 20260506174449 | 68 | 134 | 4.0 | 50.0 | 5.12 | 1.16 | 0.00 | 44 | 996.7 |
| 20260506174049 | 68 | 111 | 5.0 | 50.0 | 5.16 | 1.18 | 0.00 | 44 | 996.7 |
| 20260506173649 | 70 | 145 | 5.0 | 50.0 | 5.20 | 1.19 | 0.00 | 44 | 996.7 |
| 20260506173249 | 70 | 117 | 5.0 | 50.0 | 5.24 | 1.21 | 0.00 | 43 | 996.6 |
| 20260506172849 | 72 | 155 | 7.0 | 50.0 | 5.28 | 1.22 | 0.00 | 43 | 996.6 |
| 20260506172449 | 72 | 173 | 8.0 | 50.0 | 5.28 | 1.23 | 0.00 | 43 | 996.6 |
| 20260506172049 | 73 | 173 | 7.0 | 50.0 | 5.31 | 1.25 | 0.00 | 43 | 996.5 |
| 20260506171649 | 73 | 106 | 4.0 | 50.0 | 5.35 | 1.27 | 0.00 | 43 | 996.6 |
| 20260506171249 | 73 | 177 | 7.0 | 50.0 | 5.43 | 1.29 | 0.00 | 43 | 996.6 |
| 20260506170849 | 73 | 184 | 7.0 | 50.0 | 5.43 | 1.28 | 0.00 | 43 | 996.6 |
| 20260506170449 | 72 | 151 | 8.0 | 50.0 | 5.43 | 1.27 | 0.00 | 43 | 996.6 |
| 20260506170049 | 73 | 155 | 9.0 | 50.0 | 5.43 | 1.29 | 0.00 | 42 | 996.6 |
| 20260506165649 | 75 | 177 | 12.0 | 50.0 | 5.43 | 1.32 | 0.00 | 42 | 996.5 |
| 20260506165249 | 72 | 168 | 9.0 | 50.0 | 5.35 | 1.27 | 0.00 | 42 | 996.5 |
| 20260506164849 | 73 | 179 | 10.0 | 50.0 | 5.39 | 1.29 | 0.00 | 42 | 996.5 |
| 20260506164449 | 77 | 166 | 11.0 | 50.0 | 5.43 | 1.31 | 0.00 | 42 | 996.5 |
| 20260506164049 | 77 | 190 | 13.0 | 50.0 | 5.43 | 1.30 | 0.00 | 42 | 996.5 |
| 20260506163649 | 73 | 183 | 11.0 | 50.0 | 5.43 | 1.28 | 0.00 | 41 | 996.5 |
| 20260506163249 | 73 | 172 | 15.0 | 50.0 | 5.43 | 1.29 | 0.00 | 41 | 996.5 |
| 20260506162849 | 73 | 168 | 11.0 | 50.0 | 5.43 | 1.29 | 0.00 | 41 | 996.5 |
| 20260506162449 | 73 | 144 | 7.0 | 50.0 | 5.43 | 1.30 | 0.00 | 40 | 996.4 |
| 20260506162049 | 73 | 173 | 8.0 | 50.0 | 5.43 | 1.32 | 0.00 | 40 | 996.4 |
| 20260506161649 | 73 | 184 | 15.0 | 50.0 | 5.43 | 1.33 | 0.00 | 39 | 996.4 |
| 20260506161249 | 75 | 207 | 12.0 | 50.0 | 5.43 | 1.34 | 0.00 | 39 | 996.4 |
| 20260506160849 | 75 | 172 | 10.0 | 50.0 | 5.43 | 1.35 | 0.00 | 39 | 996.4 |
| 20260506160449 | 79 | 155 | 10.0 | 50.0 | 5.43 | 1.39 | 0.00 | 39 | 996.4 |
| 20260506160049 | 75 | 179 | 14.0 | 50.0 | 5.43 | 1.35 | 0.00 | 38 | 996.4 |
| 20260506155649 | 75 | 200 | 14.0 | 50.0 | 5.43 | 1.33 | 0.00 | 38 | 996.4 |
| 20260506155249 | 75 | 161 | 7.0 | 50.0 | 5.43 | 1.34 | 0.00 | 37 | 996.4 |
| 20260506154849 | 75 | 161 | 13.0 | 50.0 | 5.43 | 1.37 | 0.00 | 37 | 996.4 |
| 20260506154449 | 79 | 183 | 23.0 | 50.0 | 5.43 | 1.42 | 0.00 | 37 | 996.4 |
| 20260506154049 | 81 | 168 | 11.0 | 50.0 | 5.43 | 1.46 | 0.00 | 36 | 996.4 |
| 20260506153649 | 79 | 172 | 8.0 | 50.0 | 5.43 | 1.41 | 0.00 | 36 | 996.4 |
| 20260506153249 | 81 | 190 | 13.0 | 50.0 | 5.43 | 1.49 | 0.00 | 35 | 996.4 |
| 20260506152849 | 79 | 206 | 24.0 | 50.0 | 5.43 | 1.46 | 0.00 | 35 | 996.4 |
| 20260506152449 | 81 | 184 | 17.0 | 50.0 | 5.43 | 1.48 | 0.00 | 34 | 996.3 |
| 20260506152049 | 81 | 183 | 11.0 | 50.0 | 5.43 | 1.48 | 0.00 | 34 | 996.4 |
| 20260506151649 | 81 | 166 | 13.0 | 50.0 | 5.43 | 1.45 | 0.00 | 33 | 996.3 |
| 20260506151249 | 81 | 179 | 19.0 | 50.0 | 5.43 | 1.42 | 0.00 | 33 | 996.3 |
| 20260506150849 | 84 | 189 | 14.0 | 50.0 | 5.43 | 1.49 | 0.00 | 33 | 996.3 |
| 20260506150449 | 82 | 201 | 10.0 | 50.0 | 5.43 | 1.52 | 0.00 | 34 | 996.3 |
| 20260506150049 | 84 | 161 | 17.0 | 50.0 | 5.43 | 1.65 | 0.00 | 34 | 996.3 |
| 20260506145649 | 84 | 179 | 15.0 | 50.0 | 5.43 | 1.59 | 0.00 | 34 | 996.4 |
| 20260506145249 | 82 | 156 | 17.0 | 50.0 | 5.43 | 1.59 | 0.00 | 34 | 996.4 |
| 20260506144849 | 82 | 172 | 17.0 | 50.0 | 5.43 | 1.63 | 0.00 | 34 | 996.4 |
| 20260506144449 | 84 | 144 | 13.0 | 50.0 | 5.43 | 1.58 | 0.00 | 34 | 996.4 |
| 20260506144049 | 84 | 234 | 16.0 | 50.0 | 5.43 | 1.59 | 0.00 | 34 | 996.4 |
| 20260506143649 | 82 | 149 | 12.0 | 50.0 | 5.43 | 1.63 | 0.00 | 34 | 996.3 |
| 20260506143249 | 82 | 172 | 23.0 | 50.0 | 5.43 | 1.57 | 0.00 | 33 | 996.3 |
| 20260506142849 | 82 | 179 | 19.0 | 50.0 | 5.43 | 1.57 | 0.00 | 34 | 996.4 |
| 20260506142449 | 82 | 218 | 23.0 | 50.0 | 5.43 | 1.48 | 0.00 | 34 | 996.4 |
| 20260506141649 | 82 | 184 | 24.0 | 50.0 | 5.43 | 1.47 | 0.00 | 33 | 996.4 |
| 20260506141249 | 81 | 206 | 11.0 | 50.0 | 5.43 | 1.45 | 0.00 | 34 | 996.4 |
| 20260506140849 | 82 | 166 | 24.0 | 50.0 | 5.43 | 1.60 | 0.00 | 34 | 996.3 |
| 20260506140449 | 84 | 190 | 24.0 | 50.0 | 5.43 | 1.58 | 0.00 | 34 | 996.3 |
| 20260506140049 | 82 | 156 | 10.0 | 50.0 | 5.43 | 1.57 | 0.00 | 34 | 996.3 |
| 20260506135649 | 82 | 173 | 17.0 | 50.0 | 5.43 | 1.62 | 0.00 | 34 | 996.3 |
| 20260506135249 | 82 | 184 | 23.0 | 50.0 | 5.43 | 1.55 | 0.00 | 34 | 996.4 |
| 20260506134849 | 82 | 156 | 27.0 | 50.0 | 5.43 | 1.55 | 0.00 | 33 | 996.4 |
| 20260506134449 | 82 | 173 | 15.0 | 50.0 | 5.43 | 1.49 | 0.00 | 33 | 996.3 |
| 20260506134049 | 82 | 206 | 13.0 | 50.0 | 5.43 | 1.46 | 0.00 | 32 | 996.4 |
| 20260506133649 | 82 | 177 | 22.0 | 50.0 | 5.43 | 1.53 | 0.00 | 32 | 996.4 |
| 20260506133249 | 82 | 156 | 22.0 | 50.0 | 5.43 | 1.53 | 0.00 | 31 | 996.3 |
| 20260506132849 | 82 | 172 | 21.0 | 50.0 | 5.43 | 1.47 | 0.00 | 31 | 996.3 |
| 20260506132449 | 82 | 194 | 24.0 | 50.0 | 5.43 | 1.45 | 0.00 | 32 | 996.3 |
| 20260506132049 | 84 | 151 | 14.0 | 50.0 | 5.43 | 1.51 | 0.00 | 32 | 996.3 |
| 20260506131649 | 81 | 200 | 21.0 | 50.0 | 5.43 | 1.54 | 0.00 | 32 | 996.3 |
| 20260506131249 | 82 | 218 | 16.0 | 50.0 | 5.43 | 1.59 | 0.00 | 33 | 996.3 |
| 20260506130849 | 82 | 172 | 18.0 | 50.0 | 5.43 | 1.55 | 0.00 | 34 | 996.4 |
| 20260506130449 | 82 | 190 | 17.0 | 50.0 | 5.43 | 1.55 | 0.00 | 34 | 996.3 |
| 20260506130049 | 82 | 190 | 15.0 | 50.0 | 5.43 | 1.55 | 0.00 | 34 | 996.4 |
| 20260506125649 | 82 | 95 | 18.0 | 50.0 | 5.43 | 1.62 | 0.00 | 35 | 996.4 |
| 20260506125249 | 82 | 184 | 21.0 | 50.0 | 5.43 | 1.55 | 0.00 | 36 | 996.4 |
| 20260506124849 | 82 | 179 | 15.0 | 50.0 | 5.43 | 1.54 | 0.00 | 36 | 996.3 |
| 20260506124449 | 84 | 190 | 23.0 | 50.0 | 5.43 | 1.54 | 0.00 | 37 | 996.3 |
| 20260506124049 | 84 | 161 | 20.0 | 50.0 | 5.43 | 1.56 | 0.00 | 38 | 996.4 |
| 20260506123649 | 84 | 207 | 17.0 | 50.0 | 5.43 | 1.57 | 0.00 | 39 | 996.4 |
| 20260506123249 | 82 | 156 | 20.0 | 50.0 | 5.43 | 1.54 | 0.00 | 40 | 996.4 |
| 20260506122849 | 82 | 177 | 21.0 | 50.0 | 5.43 | 1.59 | 0.00 | 41 | 996.4 |
| 20260506122449 | 84 | 161 | 16.0 | 50.0 | 5.43 | 1.60 | 0.00 | 42 | 996.4 |
| 20260506122049 | 82 | 194 | 17.0 | 50.0 | 5.43 | 1.58 | 0.00 | 42 | 996.4 |
| 20260506121649 | 84 | 161 | 15.0 | 50.0 | 5.43 | 1.56 | 0.00 | 41 | 996.5 |
| 20260506121249 | 82 | 155 | 20.0 | 50.0 | 5.43 | 1.55 | 0.00 | 41 | 996.6 |
| 20260506120849 | 82 | 156 | 13.0 | 50.0 | 5.43 | 1.55 | 0.00 | 41 | 996.6 |
| 20260506120448 | 84 | 151 | 11.0 | 50.0 | 5.43 | 1.52 | 0.00 | 41 | 996.6 |
| 20260506120048 | 82 | 128 | 13.0 | 50.0 | 5.43 | 1.51 | 0.00 | 41 | 996.6 |
| 20260506115649 | 81 | 156 | 17.0 | 50.0 | 5.43 | 1.50 | 0.00 | 40 | 996.7 |
| 20260506115249 | 81 | 183 | 23.0 | 50.0 | 5.43 | 1.48 | 0.00 | 40 | 996.7 |
| 20260506114849 | 82 | 206 | 38.0 | 50.0 | 5.43 | 1.45 | 0.00 | 41 | 996.7 |
| 20260506114448 | 84 | 134 | 11.0 | 50.0 | 5.43 | 1.52 | 0.00 | 41 | 996.7 |
| 20260506114048 | 81 | 173 | 27.0 | 50.0 | 5.43 | 1.48 | 0.00 | 41 | 996.7 |
| 20260506113649 | 81 | 155 | 24.0 | 50.0 | 5.43 | 1.48 | 0.00 | 41 | 996.7 |
| 20260506113248 | 82 | 183 | 17.0 | 50.0 | 5.43 | 1.49 | 0.00 | 41 | 996.6 |
| 20260506112849 | 82 | 151 | 11.0 | 50.0 | 5.43 | 1.50 | 0.00 | 41 | 996.6 |
| 20260506112448 | 81 | 168 | 22.0 | 50.0 | 5.43 | 1.46 | 0.00 | 41 | 996.7 |
| 20260506112049 | 81 | 156 | 22.0 | 50.0 | 5.43 | 1.47 | 0.00 | 41 | 996.6 |
| 20260506111648 | 81 | 224 | 27.0 | 50.0 | 5.43 | 1.47 | 0.00 | 41 | 996.7 |
| 20260506111249 | 81 | 151 | 35.0 | 50.0 | 5.43 | 1.49 | 0.00 | 41 | 996.7 |
| 20260506110848 | 81 | 161 | 16.0 | 50.0 | 5.43 | 1.49 | 0.00 | 41 | 996.7 |
| 20260506110448 | 81 | 149 | 20.0 | 50.0 | 5.43 | 1.50 | 0.00 | 41 | 996.6 |
| 20260506110048 | 81 | 162 | 9.0 | 50.0 | 5.43 | 1.49 | 0.00 | 41 | 996.7 |
| 20260506105649 | 82 | 161 | 17.0 | 50.0 | 5.43 | 1.49 | 0.00 | 41 | 996.6 |
| 20260506105249 | 82 | 179 | 27.0 | 50.0 | 5.43 | 1.48 | 0.00 | 41 | 996.7 |
| 20260506104849 | 81 | 161 | 18.0 | 50.0 | 5.43 | 1.48 | 0.00 | 40 | 996.7 |
| 20260506104449 | 81 | 196 | 20.0 | 50.0 | 5.43 | 1.48 | 0.00 | 41 | 996.7 |
| 20260506104048 | 82 | 184 | 18.0 | 50.0 | 5.43 | 1.49 | 0.00 | 41 | 996.7 |
| 20260506103648 | 79 | 145 | 19.0 | 50.0 | 5.43 | 1.45 | 0.00 | 41 | 996.7 |
| 20260506103249 | 81 | 184 | 20.0 | 50.0 | 5.43 | 1.46 | 0.00 | 41 | 996.7 |
| 20260506102848 | 81 | 189 | 28.0 | 50.0 | 5.43 | 1.48 | 0.00 | 41 | 996.7 |
| 20260506102448 | 81 | 173 | 26.0 | 50.0 | 5.43 | 1.49 | 0.00 | 41 | 996.6 |
| 20260506102048 | 81 | 134 | 33.0 | 50.0 | 5.43 | 1.51 | 0.00 | 41 | 996.6 |
| 20260506101648 | 79 | 9 | 21.0 | 50.0 | 5.43 | 1.48 | 0.00 | 42 | 996.6 |
| 20260506101248 | 81 | 173 | 16.0 | 50.0 | 5.43 | 1.48 | 0.00 | 42 | 996.7 |
| 20260506100848 | 82 | 145 | 19.0 | 50.0 | 5.43 | 1.50 | 0.00 | 42 | 996.7 |
| 20260506100449 | 81 | 190 | 32.0 | 50.0 | 5.43 | 1.47 | 0.00 | 43 | 996.7 |
| 20260506100049 | 77 | 156 | 23.0 | 50.0 | 5.43 | 1.45 | 0.00 | 43 | 996.7 |
| 20260506095648 | 77 | 161 | 27.0 | 50.0 | 5.43 | 1.46 | 0.00 | 43 | 996.7 |
| 20260506095248 | 79 | 194 | 28.0 | 50.0 | 5.43 | 1.41 | 0.00 | 42 | 996.7 |
| 20260506094849 | 75 | 145 | 32.0 | 50.0 | 5.43 | 1.33 | 0.00 | 42 | 996.7 |
| 20260506094448 | 73 | 194 | 33.0 | 50.0 | 5.43 | 1.33 | 0.00 | 43 | 996.7 |
| 20260506094049 | 75 | 179 | 23.0 | 50.0 | 5.43 | 1.34 | 0.00 | 43 | 996.7 |
| 20260506093649 | 75 | 196 | 18.0 | 50.0 | 5.43 | 1.35 | 0.00 | 43 | 996.7 |
| 20260506092849 | 73 | 190 | 15.0 | 50.0 | 5.43 | 1.34 | 0.00 | 42 | 996.7 |
| 20260506092449 | 73 | 173 | 23.0 | 50.0 | 5.43 | 1.36 | 0.00 | 42 | 996.7 |
| 20260506092049 | 75 | 151 | 12.0 | 50.0 | 5.43 | 1.38 | 0.00 | 42 | 996.7 |
| 20260506091649 | 73 | 166 | 19.0 | 50.0 | 5.43 | 1.37 | 0.00 | 42 | 996.6 |
| 20260506091248 | 73 | 161 | 16.0 | 50.0 | 5.43 | 1.35 | 0.00 | 41 | 996.7 |
| 20260506090849 | 73 | 134 | 29.0 | 50.0 | 5.43 | 1.35 | 0.00 | 41 | 996.7 |
| 20260506090448 | 73 | 168 | 26.0 | 50.0 | 5.43 | 1.36 | 0.00 | 41 | 996.7 |
| 20260506085648 | 75 | 156 | 14.0 | 50.0 | 5.43 | 1.39 | 0.00 | 41 | 996.8 |
| 20260506085248 | 77 | 172 | 14.0 | 50.0 | 5.43 | 1.42 | 0.00 | 42 | 996.8 |
| 20260506084848 | 77 | 156 | 28.0 | 50.0 | 5.43 | 1.44 | 0.00 | 43 | 996.7 |
| 20260506084448 | 82 | 151 | 15.0 | 50.0 | 5.43 | 1.49 | 0.00 | 42 | 996.7 |
| 20260506084048 | 81 | 106 | 17.0 | 50.0 | 5.43 | 1.40 | 0.00 | 41 | 996.8 |
| 20260506083649 | 73 | 156 | 18.0 | 50.0 | 5.43 | 1.31 | 0.00 | 40 | 996.8 |
| 20260506083248 | 73 | 155 | 27.0 | 50.0 | 5.43 | 1.33 | 0.00 | 41 | 996.7 |
| 20260506082848 | 77 | 161 | 28.0 | 50.0 | 5.43 | 1.41 | 0.00 | 41 | 996.7 |
| 20260506082448 | 77 | 155 | 23.0 | 50.0 | 5.43 | 1.40 | 0.00 | 41 | 996.7 |
| 20260506082048 | 79 | 128 | 14.0 | 50.0 | 5.43 | 1.41 | 0.00 | 40 | 996.7 |
| 20260506081649 | 75 | 168 | 12.0 | 50.0 | 5.43 | 1.37 | 0.00 | 40 | 996.8 |
| 20260506081248 | 75 | 121 | 21.0 | 50.0 | 5.43 | 1.35 | 0.00 | 40 | 996.8 |
| 20260506080848 | 77 | 145 | 11.0 | 50.0 | 5.43 | 1.43 | 0.00 | 41 | 996.8 |
| 20260506080448 | 81 | 156 | 21.0 | 50.0 | 5.43 | 1.45 | 0.00 | 41 | 996.8 |
| 20260506073248 | 79 | 173 | 17.0 | 50.0 | 5.43 | 1.39 | 0.00 | 41 | 996.8 |
| 20260506072848 | 79 | 173 | 17.0 | 50.0 | 5.43 | 1.38 | 0.00 | 41 | 996.8 |
| 20260506072448 | 77 | 200 | 20.0 | 50.0 | 5.43 | 1.37 | 0.00 | 42 | 996.8 |
| 20260506072048 | 79 | 161 | 25.0 | 50.0 | 5.43 | 1.37 | 0.00 | 42 | 996.8 |
| 20260506071648 | 79 | 144 | 9.0 | 50.0 | 5.43 | 1.37 | 0.00 | 42 | 996.8 |
| 20260506071248 | 79 | 156 | 11.0 | 50.0 | 5.43 | 1.36 | 0.00 | 42 | 996.8 |
| 20260506070448 | 75 | 162 | 28.0 | 50.0 | 5.43 | 1.33 | 0.00 | 42 | 996.8 |
| 20260506062448 | 73 | 134 | 18.0 | 50.0 | 5.43 | 1.26 | 0.00 | 43 | 996.9 |
| 20260506062048 | 73 | 117 | 13.0 | 50.0 | 5.43 | 1.26 | 0.00 | 43 | 996.9 |
| 20260506061648 | 72 | 111 | 17.0 | 50.0 | 5.43 | 1.26 | 0.00 | 42 | 996.9 |
| 20260506061248 | 72 | 172 | 15.0 | 50.0 | 5.43 | 1.23 | 0.00 | 43 | 996.9 |
| 20260506060848 | 73 | 111 | 14.0 | 50.0 | 5.43 | 1.26 | 0.00 | 43 | 997.0 |
| 20260506060448 | 75 | 179 | 7.0 | 50.0 | 5.43 | 1.31 | 0.00 | 43 | 997.0 |
| 20260506051248 | 68 | 128 | 5.0 | 50.0 | 5.43 | 1.20 | 0.00 | 47 | 997.2 |
| 20260506050848 | 66 | 100 | 7.0 | 50.0 | 5.43 | 1.26 | 0.00 | 47 | 997.2 |
| 20260506050448 | 66 | 166 | 7.0 | 50.0 | 5.43 | 1.24 | 0.00 | 46 | 997.2 |
| 20260506044848 | 66 | 111 | 4.0 | 50.0 | 5.43 | 1.22 | 0.00 | 49 | 997.3 |
| 20260506044448 | 64 | 149 | 6.0 | 50.0 | 5.43 | 1.22 | 0.00 | 49 | 997.3 |
| 20260506044048 | 64 | 104 | 7.0 | 50.0 | 5.43 | 1.23 | 0.00 | 50 | 997.2 |
| 20260506043648 | 63 | 111 | 5.0 | 50.0 | 5.39 | 1.20 | 0.00 | 52 | 997.3 |
| 20260506043248 | 63 | 123 | 5.0 | 50.0 | 5.39 | 1.21 | 0.00 | 53 | 997.4 |
| 20260506042848 | 63 | 145 | 2.0 | 50.0 | 5.35 | 1.26 | 0.00 | 55 | 997.4 |
| 20260506042448 | 63 | 121 | 3.0 | 50.0 | 5.35 | 1.26 | 0.00 | 56 | 997.4 |
| 20260506042048 | 61 | 144 | 3.0 | 50.0 | 5.31 | 1.23 | 0.00 | 57 | 997.4 |
| 20260506041648 | 61 | 138 | 4.0 | 50.0 | 5.31 | 1.20 | 0.00 | 58 | 997.4 |
| 20260506041248 | 59 | 145 | 3.0 | 50.0 | 5.28 | 1.18 | 0.00 | 59 | 997.4 |
| 20260506040848 | 59 | 149 | 4.0 | 50.0 | 5.28 | 1.14 | 0.00 | 60 | 997.4 |
| 20260506040048 | 57 | 156 | 5.0 | 50.0 | 5.24 | 1.10 | 0.00 | 61 | 997.4 |
| 20260506035648 | 57 | 139 | 5.0 | 50.0 | 5.20 | 1.11 | 0.00 | 61 | 997.3 |
| 20260506035248 | 57 | 111 | 4.0 | 50.0 | 5.20 | 1.11 | 0.00 | 61 | 997.3 |
| 20260506034848 | 57 | 177 | 5.0 | 50.0 | 5.16 | 1.04 | 0.00 | 61 | 997.3 |
| 20260506034448 | 57 | 151 | 6.0 | 50.0 | 5.16 | 0.99 | 0.00 | 61 | 997.3 |
| 20260506034048 | 57 | 155 | 5.0 | 50.0 | 5.12 | 0.96 | 0.00 | 61 | 997.4 |
| 20260506033648 | 57 | 177 | 5.0 | 50.0 | 5.08 | 0.98 | 0.00 | 61 | 997.4 |
| 20260506033248 | 57 | 123 | 7.0 | 50.0 | 5.04 | 0.96 | 0.00 | 61 | 997.3 |
| 20260506032848 | 57 | 121 | 3.0 | 50.0 | 5.00 | 0.93 | 0.00 | 61 | 997.3 |
| 20260506032448 | 55 | 156 | 4.0 | 50.0 | 4.96 | 0.92 | 0.00 | 60 | 997.4 |
| 20260506032048 | 55 | 151 | 4.0 | 50.0 | 4.96 | 0.90 | 0.00 | 60 | 997.4 |
| 20260506031648 | 55 | 184 | 4.0 | 50.0 | 4.92 | 0.88 | 0.00 | 60 | 997.4 |
| 20260506031248 | 55 | 156 | 5.0 | 50.0 | 4.92 | 0.86 | 0.00 | 60 | 997.5 |
| 20260506030848 | 55 | 144 | 7.0 | 50.0 | 4.92 | 0.86 | 0.00 | 60 | 997.5 |
| 20260506030448 | 55 | 144 | 6.0 | 50.0 | 4.92 | 0.86 | 0.00 | 60 | 997.5 |
| 20260506030048 | 55 | 177 | 6.0 | 50.0 | 4.92 | 0.84 | 0.00 | 60 | 997.5 |
| 20260506025648 | 55 | 132 | 6.0 | 50.0 | 4.88 | 0.86 | 0.00 | 60 | 997.5 |
| 20260506025248 | 55 | 177 | 6.0 | 50.0 | 4.88 | 0.86 | 0.00 | 60 | 997.5 |
| 20260506024848 | 55 | 183 | 4.0 | 50.0 | 4.88 | 0.85 | 0.00 | 60 | 997.5 |
| 20260506024448 | 55 | 145 | 6.0 | 50.0 | 4.88 | 0.85 | 0.00 | 60 | 997.5 |
| 20260506024048 | 55 | 161 | 4.0 | 50.0 | 4.88 | 0.85 | 0.00 | 59 | 997.5 |
| 20260506023648 | 55 | 162 | 8.0 | 50.0 | 4.88 | 0.85 | 0.00 | 59 | 997.5 |
| 20260506023248 | 57 | 128 | 6.0 | 50.0 | 4.88 | 0.88 | 0.00 | 59 | 997.4 |
| 20260506022848 | 57 | 166 | 9.0 | 50.0 | 4.88 | 0.89 | 0.00 | 59 | 997.5 |
| 20260506022448 | 57 | 145 | 6.0 | 50.0 | 4.88 | 0.88 | 0.00 | 59 | 997.4 |
| 20260506022048 | 57 | 173 | 7.0 | 50.0 | 4.92 | 0.87 | 0.00 | 59 | 997.4 |
| 20260506021648 | 57 | 162 | 7.0 | 50.0 | 4.88 | 0.88 | 0.00 | 59 | 997.5 |
| 20260506021248 | 55 | 194 | 10.0 | 50.0 | 4.92 | 0.86 | 0.00 | 59 | 997.5 |
| 20260506020848 | 54 | 179 | 5.0 | 50.0 | 4.92 | 0.85 | 0.00 | 59 | 997.5 |
| 20260506020448 | 55 | 173 | 6.0 | 50.0 | 4.92 | 0.86 | 0.00 | 59 | 997.5 |
| 20260506020048 | 55 | 190 | 5.0 | 50.0 | 4.92 | 0.86 | 0.00 | 58 | 997.5 |
| 20260506015648 | 55 | 194 | 7.0 | 50.0 | 4.92 | 0.88 | 0.00 | 58 | 997.5 |
| 20260506015248 | 55 | 196 | 8.0 | 50.0 | 4.92 | 0.87 | 0.00 | 58 | 997.5 |
| 20260506014848 | 55 | 190 | 7.0 | 50.0 | 4.92 | 0.88 | 0.00 | 58 | 997.6 |
| 20260506014448 | 55 | 194 | 7.0 | 50.0 | 4.92 | 0.87 | 0.00 | 58 | 997.6 |
| 20260506014048 | 55 | 184 | 6.0 | 50.0 | 4.92 | 0.88 | 0.00 | 58 | 997.5 |
| 20260506013648 | 55 | 184 | 7.0 | 50.0 | 4.92 | 0.90 | 0.00 | 58 | 997.6 |
| 20260506013248 | 57 | 177 | 10.0 | 50.0 | 4.92 | 0.91 | 0.00 | 58 | 997.6 |
| 20260506012848 | 57 | 190 | 9.0 | 50.0 | 4.92 | 0.91 | 0.00 | 58 | 997.6 |
| 20260506012448 | 57 | 173 | 7.0 | 50.0 | 4.92 | 0.91 | 0.00 | 58 | 997.5 |
| 20260506012048 | 57 | 166 | 7.0 | 50.0 | 4.92 | 0.92 | 0.00 | 59 | 997.5 |
| 20260506011648 | 57 | 190 | 7.0 | 50.0 | 4.92 | 0.91 | 0.00 | 59 | 997.5 |
| 20260506011248 | 57 | 234 | 8.0 | 50.0 | 4.92 | 0.92 | 0.00 | 59 | 997.6 |
| 20260506010849 | 57 | 168 | 11.0 | 50.0 | 4.92 | 0.90 | 0.00 | 59 | 997.5 |
| 20260506010448 | 57 | 145 | 4.0 | 50.0 | 4.92 | 0.90 | 0.00 | 59 | 997.5 |
| 20260506010048 | 57 | 166 | 9.0 | 50.0 | 4.92 | 0.90 | 0.00 | 59 | 997.5 |
| 20260506005648 | 57 | 172 | 7.0 | 50.0 | 4.92 | 0.89 | 0.00 | 59 | 997.6 |
| 20260506005248 | 57 | 156 | 9.0 | 50.0 | 4.92 | 0.89 | 0.00 | 59 | 997.6 |
| 20260506004848 | 57 | 184 | 7.0 | 50.0 | 4.92 | 0.89 | 0.00 | 59 | 997.5 |
| 20260506004448 | 55 | 173 | 9.0 | 50.0 | 4.92 | 0.88 | 0.00 | 59 | 997.5 |
| 20260506004048 | 55 | 179 | 7.0 | 50.0 | 4.92 | 0.87 | 0.00 | 59 | 997.5 |
| 20260506003648 | 55 | 183 | 6.0 | 50.0 | 4.92 | 0.88 | 0.00 | 58 | 997.5 |
| 20260506003248 | 55 | 179 | 6.0 | 50.0 | 4.92 | 0.88 | 0.00 | 58 | 997.5 |
| 20260506002848 | 57 | 184 | 10.0 | 50.0 | 4.92 | 0.87 | 0.00 | 58 | 997.5 |
| 20260506002448 | 55 | 183 | 6.0 | 50.0 | 4.92 | 0.87 | 0.00 | 58 | 997.5 |
| 20260506002048 | 55 | 179 | 8.0 | 50.0 | 4.92 | 0.87 | 0.00 | 58 | 997.5 |
| 20260506001648 | 55 | 189 | 7.0 | 50.0 | 4.92 | 0.87 | 0.00 | 58 | 997.4 |
| 20260506001248 | 55 | 190 | 8.0 | 50.0 | 4.92 | 0.87 | 0.00 | 58 | 997.4 |
| 20260506000848 | 55 | 179 | 6.0 | 50.0 | 4.92 | 0.87 | 0.00 | 58 | 997.4 |
| 20260506000448 | 55 | 149 | 7.0 | 50.0 | 4.92 | 0.87 | 0.00 | 58 | 997.4 |
| 20260506000048 | 55 | 156 | 6.0 | 50.0 | 4.92 | 0.87 | 0.00 | 57 | 997.4 |
| 20260505235648 | 55 | 173 | 8.0 | 50.0 | 4.92 | 0.88 | 0.00 | 57 | 997.4 |
| 20260505235248 | 55 | 155 | 9.0 | 50.0 | 4.92 | 0.88 | 0.00 | 57 | 997.4 |
| 20260505234848 | 55 | 162 | 6.0 | 50.0 | 4.92 | 0.87 | 0.00 | 57 | 997.4 |
| 20260505234448 | 55 | 177 | 7.0 | 50.0 | 4.92 | 0.87 | 0.00 | 57 | 997.4 |
| 20260505234048 | 55 | 183 | 6.0 | 50.0 | 4.92 | 0.88 | 0.00 | 57 | 997.5 |
| 20260505233648 | 57 | 179 | 8.0 | 50.0 | 4.92 | 0.89 | 0.00 | 57 | 997.4 |
| 20260505233248 | 57 | 172 | 7.0 | 50.0 | 4.92 | 0.90 | 0.00 | 57 | 997.4 |
| 20260505232848 | 57 | 172 | 8.0 | 50.0 | 4.92 | 0.90 | 0.00 | 57 | 997.5 |
| 20260505232448 | 57 | 172 | 7.0 | 50.0 | 4.92 | 0.90 | 0.00 | 57 | 997.5 |
| 20260505232048 | 57 | 183 | 10.0 | 50.0 | 4.92 | 0.91 | 0.00 | 57 | 997.5 |
| 20260505231648 | 57 | 179 | 7.0 | 50.0 | 4.92 | 0.91 | 0.00 | 56 | 997.5 |
| 20260505231248 | 57 | 173 | 7.0 | 50.0 | 4.92 | 0.91 | 0.00 | 56 | 997.4 |
| 20260505230848 | 57 | 172 | 7.0 | 50.0 | 4.92 | 0.90 | 0.00 | 56 | 997.5 |
| 20260505230448 | 57 | 156 | 9.0 | 50.0 | 4.92 | 0.90 | 0.00 | 56 | 997.5 |
| 20260505230048 | 57 | 179 | 9.0 | 50.0 | 4.92 | 0.90 | 0.00 | 56 | 997.5 |
| 20260505225648 | 57 | 184 | 7.0 | 50.0 | 4.92 | 0.91 | 0.00 | 56 | 997.5 |
| 20260505225248 | 57 | 179 | 7.0 | 50.0 | 4.92 | 0.91 | 0.00 | 56 | 997.5 |
| 20260505224848 | 57 | 184 | 8.0 | 50.0 | 4.92 | 0.91 | 0.00 | 56 | 997.5 |
| 20260505224448 | 57 | 183 | 6.0 | 50.0 | 4.92 | 0.92 | 0.00 | 56 | 997.5 |
| 20260505224048 | 59 | 179 | 7.0 | 50.0 | 4.92 | 0.93 | 0.00 | 56 | 997.5 |
| 20260505223648 | 57 | 183 | 7.0 | 50.0 | 4.92 | 0.93 | 0.00 | 56 | 997.6 |
| 20260505223248 | 57 | 200 | 6.0 | 50.0 | 4.92 | 0.93 | 0.00 | 56 | 997.6 |
| 20260505222848 | 59 | 183 | 7.0 | 50.0 | 4.92 | 0.94 | 0.00 | 55 | 997.6 |
| 20260505222448 | 59 | 173 | 5.0 | 50.0 | 4.92 | 0.94 | 0.00 | 55 | 997.6 |
| 20260505222048 | 59 | 179 | 5.0 | 50.0 | 4.92 | 0.94 | 0.00 | 55 | 997.6 |
| 20260505221648 | 59 | 177 | 6.0 | 50.0 | 4.92 | 0.94 | 0.00 | 55 | 997.6 |
| 20260505221248 | 59 | 162 | 4.0 | 50.0 | 4.92 | 0.94 | 0.00 | 55 | 997.6 |
| 20260505220848 | 59 | 151 | 6.0 | 50.0 | 4.92 | 0.94 | 0.00 | 55 | 997.6 |
| 20260505220448 | 61 | 173 | 6.0 | 50.0 | 4.92 | 0.94 | 0.00 | 55 | 997.7 |
| 20260505220048 | 61 | 138 | 5.0 | 50.0 | 4.92 | 0.94 | 0.00 | 55 | 997.7 |
| 20260505215648 | 61 | 194 | 7.0 | 50.0 | 4.92 | 0.92 | 0.00 | 55 | 997.7 |
| 20260505215248 | 61 | 138 | 4.0 | 50.0 | 4.96 | 0.93 | 0.00 | 55 | 997.8 |
| 20260505214848 | 61 | 166 | 5.0 | 50.0 | 4.96 | 0.94 | 0.00 | 55 | 997.8 |
| 20260505214448 | 61 | 162 | 4.0 | 50.0 | 4.96 | 0.94 | 0.00 | 55 | 997.8 |
| 20260505214048 | 61 | 145 | 5.0 | 50.0 | 4.96 | 0.94 | 0.00 | 54 | 997.8 |
| 20260505213648 | 61 | 155 | 5.0 | 50.0 | 4.96 | 0.94 | 0.00 | 54 | 997.8 |
| 20260505213248 | 61 | 166 | 5.0 | 50.0 | 4.96 | 0.94 | 0.00 | 54 | 997.8 |
| 20260505212848 | 61 | 168 | 5.0 | 50.0 | 4.96 | 0.94 | 0.00 | 54 | 997.8 |
| 20260505212448 | 61 | 127 | 6.0 | 50.0 | 4.96 | 0.94 | 0.00 | 54 | 997.8 |
| 20260505212048 | 61 | 177 | 7.0 | 50.0 | 4.96 | 0.94 | 0.00 | 54 | 997.8 |
| 20260505211648 | 61 | 189 | 6.0 | 50.0 | 4.96 | 0.93 | 0.00 | 53 | 997.8 |
| 20260505211248 | 61 | 166 | 5.0 | 50.0 | 4.96 | 0.92 | 0.00 | 53 | 997.8 |
| 20260505210848 | 61 | 166 | 4.0 | 50.0 | 4.96 | 0.92 | 0.00 | 53 | 997.8 |
| 20260505210448 | 61 | 172 | 4.0 | 50.0 | 4.96 | 0.92 | 0.00 | 53 | 997.8 |
| 20260505210048 | 61 | 166 | 6.0 | 50.0 | 4.96 | 0.94 | 0.00 | 52 | 997.8 |
| 20260505205648 | 61 | 151 | 3.0 | 50.0 | 4.96 | 0.94 | 0.00 | 52 | 997.8 |
| 20260505205248 | 63 | 194 | 4.0 | 50.0 | 4.96 | 0.94 | 0.00 | 52 | 997.8 |
| 20260505204848 | 61 | 162 | 4.0 | 50.0 | 4.96 | 0.94 | 0.00 | 52 | 997.8 |
| 20260505204448 | 63 | 172 | 3.0 | 50.0 | 4.96 | 0.93 | 0.00 | 51 | 997.9 |
| 20260505204048 | 63 | 123 | 4.0 | 50.0 | 4.96 | 0.93 | 0.00 | 51 | 997.9 |
| 20260505203648 | 63 | 151 | 5.0 | 50.0 | 4.96 | 0.93 | 0.00 | 51 | 997.9 |
| 20260505203248 | 63 | 149 | 5.0 | 50.0 | 4.96 | 0.93 | 0.00 | 50 | 997.9 |
| 20260505202847 | 63 | 149 | 4.0 | 50.0 | 4.96 | 0.93 | 0.00 | 50 | 997.9 |
| 20260505202448 | 63 | 166 | 6.0 | 50.0 | 4.96 | 0.93 | 0.00 | 50 | 997.9 |
| 20260505202048 | 63 | 145 | 4.0 | 50.0 | 4.96 | 0.89 | 0.00 | 49 | 997.9 |
| 20260505201648 | 64 | 121 | 3.0 | 50.0 | 4.96 | 0.90 | 0.00 | 49 | 997.9 |